createdAt,value
2023-02-01T00:00:31.842Z,41.97
2023-02-01T00:02:58.312Z,54.83
2023-02-01T00:05:24.786Z,55.42
2023-02-01T00:07:51.241Z,58.45
2023-02-01T00:10:18.201Z,47.83
2023-02-01T00:12:45.247Z,49.42
2023-02-01T00:15:11.795Z,61.92
2023-02-01T00:17:38.382Z,42.20
2023-02-01T00:20:05.576Z,41.67
2023-02-01T00:22:31.986Z,52.72
2023-02-01T00:24:58.372Z,48.75
2023-02-01T00:27:24.831Z,44.92
2023-02-01T00:29:51.259Z,43.83
2023-02-01T00:32:18.006Z,45.45
2023-02-01T00:34:44.405Z,47.70
2023-02-01T00:37:11.173Z,45.28
2023-02-01T00:39:37.650Z,46.47
2023-02-01T00:42:04.616Z,57.70
2023-02-01T00:44:34.158Z,57.15
2023-02-01T00:47:01.438Z,52.58
2023-02-01T00:49:29.235Z,49.03
2023-02-01T00:51:55.787Z,60.78
2023-02-01T00:54:22.255Z,55.08
2023-02-01T00:56:48.802Z,61.05
2023-02-01T00:59:15.337Z,58.33
2023-02-01T01:01:41.959Z,59.47
2023-02-01T01:04:08.506Z,59.35
2023-02-01T01:06:35.116Z,66.10
2023-02-01T01:09:04.774Z,48.47
2023-02-01T01:11:34.655Z,53.00
2023-02-01T01:14:01.929Z,68.38
2023-02-01T01:16:30.289Z,50.83
2023-02-01T01:18:57.743Z,52.45
2023-02-01T01:21:24.182Z,56.88
2023-02-01T01:23:51.073Z,79.45
2023-02-01T01:26:20.574Z,60.10
2023-02-01T01:28:47.288Z,57.88
2023-02-01T01:31:16.124Z,62.35
2023-02-01T01:33:44.893Z,48.25
2023-02-01T01:36:12.239Z,56.50
2023-02-01T01:38:40.005Z,64.40
2023-02-01T01:41:07.260Z,66.10
2023-02-01T01:43:56.046Z,56.03
2023-02-01T01:46:43.021Z,71.60
2023-02-01T01:49:21.432Z,58.75
2023-02-01T01:51:57.185Z,60.08
2023-02-01T01:54:31.218Z,47.88
2023-02-01T01:57:03.078Z,59.35
2023-02-01T01:59:32.256Z,46.42
2023-02-01T02:01:59.114Z,55.88
2023-02-01T02:04:26.361Z,54.00
2023-02-01T02:06:59.564Z,57.30
2023-02-01T02:09:26.296Z,74.20
2023-02-01T02:11:52.723Z,66.35
2023-02-01T02:14:22.556Z,61.45
2023-02-01T02:17:02.150Z,63.30
2023-02-01T02:19:50.213Z,67.05
2023-02-01T02:22:53.737Z,50.17
2023-02-01T02:25:47.905Z,50.38
2023-02-01T02:28:32.211Z,55.80
2023-02-01T02:31:04.309Z,56.75
2023-02-01T02:33:40.062Z,67.22
2023-02-01T02:36:26.286Z,47.40
2023-02-01T02:39:06.815Z,74.85
2023-02-01T02:42:06.796Z,65.45
2023-02-01T02:44:51.593Z,58.13
2023-02-01T02:47:26.875Z,54.03
2023-02-01T02:50:24.934Z,67.68
2023-02-01T02:53:33.281Z,61.75
2023-02-01T02:56:20.025Z,61.05
2023-02-01T02:59:06.905Z,54.53
2023-02-01T03:01:52.750Z,66.63
2023-02-01T03:04:21.191Z,83.13
2023-02-01T03:06:48.027Z,90.97
2023-02-01T03:09:21.492Z,90.93
2023-02-01T03:12:10.367Z,77.80
2023-02-01T03:14:41.142Z,89.78
2023-02-01T03:17:16.617Z,85.00
2023-02-01T03:19:51.135Z,69.10
2023-02-01T03:22:27.364Z,73.28
2023-02-01T03:25:03.285Z,72.57
2023-02-01T03:27:37.037Z,70.13
2023-02-01T03:30:26.761Z,67.03
2023-02-01T03:33:00.067Z,54.53
2023-02-01T03:36:20.186Z,53.30
2023-02-01T03:38:57.060Z,59.50
2023-02-01T03:41:46.817Z,61.03
2023-02-01T03:44:24.799Z,50.63
2023-02-01T03:47:04.869Z,48.33
2023-02-01T03:49:36.375Z,61.70
2023-02-01T03:52:04.913Z,55.00
2023-02-01T03:54:32.672Z,62.42
2023-02-01T03:57:04.387Z,51.80
2023-02-01T03:59:31.203Z,48.90
2023-02-01T04:01:57.602Z,60.67
2023-02-01T04:04:24.017Z,49.47
2023-02-01T04:06:51.981Z,56.35
2023-02-01T04:09:18.804Z,51.30
2023-02-01T04:11:45.240Z,78.40
2023-02-01T04:14:11.720Z,63.17
2023-02-01T04:16:38.235Z,70.85
2023-02-01T04:19:04.892Z,57.28
2023-02-01T04:21:31.407Z,66.68
2023-02-01T04:23:58.051Z,58.72
2023-02-01T04:26:27.377Z,78.05
2023-02-01T04:28:54.346Z,55.88
2023-02-01T04:31:26.717Z,61.35
2023-02-01T04:33:54.183Z,62.85
2023-02-01T04:36:22.795Z,50.10
2023-02-01T04:38:53.172Z,50.20
2023-02-01T04:41:20.992Z,51.95
2023-02-01T04:43:48.151Z,52.38
2023-02-01T04:46:14.960Z,47.22
2023-02-01T04:48:42.337Z,46.67
2023-02-01T04:51:09.476Z,48.92
2023-02-01T04:53:37.732Z,52.13
2023-02-01T04:56:04.355Z,45.85
2023-02-01T04:58:30.825Z,45.13
2023-02-01T05:00:57.528Z,41.75
2023-02-01T05:03:23.961Z,34.38
2023-02-01T05:05:50.415Z,38.42
2023-02-01T05:08:16.943Z,31.65
2023-02-01T05:10:43.345Z,31.30
2023-02-01T05:13:29.651Z,30.40
2023-02-01T05:15:56.162Z,31.83
2023-02-01T05:18:22.648Z,30.33
2023-02-01T05:20:49.113Z,31.02
2023-02-01T05:23:15.602Z,29.50
2023-02-01T05:25:42.184Z,29.95
2023-02-01T05:28:08.608Z,30.05
2023-02-01T05:30:36.235Z,30.35
2023-02-01T05:33:03.530Z,31.27
2023-02-01T05:35:30.399Z,31.85
2023-02-01T05:37:56.851Z,28.15
2023-02-01T05:40:23.603Z,29.65
2023-02-01T05:42:50.278Z,29.08
2023-02-01T05:45:16.730Z,28.33
2023-02-01T05:47:43.286Z,28.40
2023-02-01T05:50:10.130Z,28.60
2023-02-01T05:52:36.551Z,27.52
2023-02-01T05:55:03.177Z,29.88
2023-02-01T05:57:29.750Z,30.48
2023-02-01T05:59:56.206Z,30.33
2023-02-01T06:02:22.864Z,31.33
2023-02-01T06:04:49.437Z,30.40
2023-02-01T06:07:15.921Z,31.98
2023-02-01T06:09:42.317Z,31.75
2023-02-01T06:12:09.149Z,31.35
2023-02-01T06:14:35.570Z,34.22
2023-02-01T06:17:01.990Z,32.28
2023-02-01T06:19:28.387Z,32.22
2023-02-01T06:21:55.078Z,37.28
2023-02-01T06:24:21.577Z,32.42
2023-02-01T06:26:48.000Z,37.55
2023-02-01T06:29:14.557Z,38.85
2023-02-01T06:31:41.437Z,39.75
2023-02-01T06:34:08.030Z,41.35
2023-02-01T06:36:34.493Z,44.72
2023-02-01T06:39:00.933Z,37.50
2023-02-01T06:41:29.416Z,46.95
2023-02-01T06:43:56.276Z,41.53
2023-02-01T06:46:22.790Z,46.42
2023-02-01T06:48:50.192Z,43.90
2023-02-01T06:51:25.243Z,51.03
2023-02-01T06:53:52.146Z,49.03
2023-02-01T06:56:18.891Z,58.90
2023-02-01T06:58:45.548Z,54.97
2023-02-01T07:01:12.303Z,58.70
2023-02-01T07:03:39.204Z,65.32
2023-02-01T07:06:07.097Z,54.65
2023-02-01T07:08:36.078Z,54.88
2023-02-01T07:11:07.787Z,56.28
2023-02-01T07:13:35.023Z,54.70
2023-02-01T07:16:03.668Z,45.45
2023-02-01T07:18:32.036Z,48.47
2023-02-01T07:20:58.964Z,56.20
2023-02-01T07:23:25.890Z,58.90
2023-02-01T07:26:00.920Z,69.32
2023-02-01T07:28:29.907Z,60.65
2023-02-01T07:30:56.437Z,56.30
2023-02-01T07:33:27.767Z,61.22
2023-02-01T07:35:54.459Z,64.50
2023-02-01T07:38:22.659Z,60.97
2023-02-01T07:40:49.061Z,68.82
2023-02-01T07:43:15.493Z,69.97
2023-02-01T07:45:41.974Z,69.32
2023-02-01T07:48:08.378Z,70.28
2023-02-01T07:50:35.113Z,78.72
2023-02-01T07:53:02.231Z,74.90
2023-02-01T07:55:29.087Z,82.15
2023-02-01T07:57:59.051Z,93.15
2023-02-01T08:00:44.868Z,89.22
2023-02-01T08:03:11.347Z,75.32
2023-02-01T08:05:37.960Z,72.25
2023-02-01T08:08:05.016Z,90.45
2023-02-01T08:10:31.690Z,79.93
2023-02-01T08:13:01.986Z,86.80
2023-02-01T08:17:59.378Z,72.57
2023-02-01T08:20:29.219Z,81.13
2023-02-01T08:22:56.087Z,80.80
2023-02-01T08:25:23.841Z,85.78
2023-02-01T08:27:51.101Z,76.35
2023-02-01T08:30:17.808Z,68.47
2023-02-01T08:32:44.514Z,77.13
2023-02-01T08:35:10.996Z,60.08
2023-02-01T08:37:37.561Z,53.40
2023-02-01T08:40:05.567Z,63.03
2023-02-01T08:42:50.395Z,57.72
2023-02-01T08:45:17.111Z,60.20
2023-02-01T08:47:44.063Z,54.08
2023-02-01T08:50:11.412Z,51.30
2023-02-01T08:52:38.349Z,55.40
2023-02-01T08:55:05.716Z,48.67
2023-02-01T08:57:32.755Z,56.78
2023-02-01T08:59:59.197Z,58.15
2023-02-01T09:02:25.815Z,70.47
2023-02-01T09:04:52.364Z,76.88
2023-02-01T09:07:18.926Z,63.45
2023-02-01T09:09:46.371Z,71.70
2023-02-01T09:12:12.891Z,73.63
2023-02-01T09:14:39.323Z,73.70
2023-02-01T09:17:06.730Z,69.30
2023-02-01T09:19:33.150Z,77.90
2023-02-01T09:21:59.676Z,63.80
2023-02-01T09:24:26.189Z,58.97
2023-02-01T09:26:53.583Z,58.67
2023-02-01T09:29:20.157Z,87.88
2023-02-01T09:31:57.686Z,66.65
2023-02-01T09:34:29.797Z,71.20
2023-02-01T09:36:56.492Z,56.85
2023-02-01T09:39:23.046Z,56.13
2023-02-01T09:41:49.432Z,66.40
2023-02-01T09:44:43.874Z,61.83
2023-02-01T09:47:23.122Z,61.08
2023-02-01T09:49:56.867Z,56.08
2023-02-01T09:52:39.799Z,60.13
2023-02-01T09:55:16.223Z,60.33
2023-02-01T09:58:14.136Z,53.50
2023-02-01T10:00:45.853Z,54.33
2023-02-01T10:03:13.877Z,50.20
2023-02-01T10:06:10.307Z,42.88
2023-02-01T10:09:04.642Z,57.72
2023-02-01T10:11:49.678Z,46.85
2023-02-01T10:14:24.924Z,44.05
2023-02-01T10:17:03.857Z,51.25
2023-02-01T10:19:36.608Z,52.78
2023-02-01T10:22:10.598Z,40.17
2023-02-01T10:24:37.194Z,47.67
2023-02-01T10:27:09.678Z,38.92
2023-02-01T10:29:39.620Z,53.58
2023-02-01T10:32:33.195Z,56.78
2023-02-01T10:35:03.124Z,49.28
2023-02-01T10:37:34.632Z,68.43
2023-02-01T10:40:13.105Z,52.40
2023-02-01T10:42:40.814Z,66.35
2023-02-01T10:45:08.145Z,66.05
2023-02-01T10:47:34.551Z,65.78
2023-02-01T10:50:23.305Z,59.90
2023-02-01T10:52:57.974Z,58.22
2023-02-01T10:55:41.037Z,74.55
2023-02-01T10:58:16.818Z,55.00
2023-02-01T11:00:50.116Z,55.25
2023-02-01T11:03:43.201Z,52.33
2023-02-01T11:06:22.739Z,60.47
2023-02-01T11:08:52.198Z,67.47
2023-02-01T11:11:20.152Z,67.57
2023-02-01T11:13:54.206Z,62.55
2023-02-01T11:16:20.817Z,57.28
2023-02-01T11:18:55.774Z,60.92
2023-02-01T11:21:23.308Z,63.38
2023-02-01T11:23:49.962Z,69.28
2023-02-01T11:26:24.582Z,77.07
2023-02-01T11:28:59.569Z,72.47
2023-02-01T11:31:28.450Z,60.85
2023-02-01T11:34:00.364Z,62.28
2023-02-01T11:36:30.924Z,61.70
2023-02-01T11:39:11.135Z,72.70
2023-02-01T11:44:27.483Z,65.78
2023-02-01T11:46:53.993Z,69.00
2023-02-01T11:49:27.816Z,67.30
2023-02-01T11:52:07.519Z,49.13
2023-02-01T11:54:42.914Z,52.95
2023-02-01T11:57:29.571Z,56.30
2023-02-01T12:00:14.820Z,47.55
2023-02-01T12:03:13.659Z,40.10
2023-02-01T12:06:15.459Z,44.33
2023-02-01T12:09:03.378Z,48.50
2023-02-01T12:11:43.174Z,43.20
2023-02-01T12:14:20.116Z,52.42
2023-02-01T12:16:56.394Z,44.35
2023-02-01T12:19:41.416Z,51.13
2023-02-01T12:22:29.387Z,47.75
2023-02-01T12:25:21.654Z,40.55
2023-02-01T12:28:08.135Z,37.03
2023-02-01T12:30:49.816Z,32.00
2023-02-01T12:33:39.480Z,29.85
2023-02-01T12:36:24.762Z,24.88
2023-02-01T12:39:14.257Z,25.48
2023-02-01T12:41:52.903Z,27.17
2023-02-01T12:44:33.127Z,26.38
2023-02-01T12:49:44.189Z,27.63
2023-02-01T12:52:21.233Z,28.27
2023-02-01T12:54:58.849Z,29.02
2023-02-01T12:57:31.801Z,29.08
2023-02-01T13:00:18.441Z,30.23
2023-02-01T13:02:50.587Z,29.25
2023-02-01T13:05:30.907Z,29.55
2023-02-01T13:08:06.167Z,31.48
2023-02-01T13:10:38.262Z,31.48
2023-02-01T13:13:32.075Z,31.35
2023-02-01T13:16:25.442Z,31.23
2023-02-01T13:18:54.648Z,30.65
2023-02-01T13:21:34.013Z,30.10
2023-02-01T13:24:00.454Z,28.90
2023-02-01T13:26:26.870Z,28.77
2023-02-01T13:28:59.351Z,25.63
2023-02-01T13:31:45.903Z,23.75
2023-02-01T13:34:31.825Z,22.45
2023-02-01T13:37:31.889Z,20.48
2023-02-01T13:40:19.872Z,20.27
2023-02-01T13:42:53.825Z,19.10
2023-02-01T13:45:24.174Z,18.63
2023-02-01T13:47:54.257Z,18.23
2023-02-01T13:50:24.045Z,18.00
2023-02-01T13:53:14.592Z,17.10
2023-02-01T13:55:45.774Z,17.08
2023-02-01T13:58:42.890Z,15.88
2023-02-01T14:01:24.642Z,17.67
2023-02-01T14:04:03.477Z,14.95
2023-02-01T14:06:34.844Z,20.83
2023-02-01T14:09:13.237Z,18.30
2023-02-01T14:11:50.137Z,13.90
2023-02-01T14:14:16.499Z,21.80
2023-02-01T14:17:02.848Z,19.95
2023-02-01T14:19:34.358Z,23.88
2023-02-01T14:22:02.668Z,27.25
2023-02-01T14:24:35.502Z,24.10
2023-02-01T14:27:17.461Z,28.58
2023-02-01T14:29:58.764Z,37.92
2023-02-01T14:32:31.633Z,30.67
2023-02-01T14:35:01.883Z,34.63
2023-02-01T14:40:26.215Z,37.90
2023-02-01T14:42:53.899Z,36.45
2023-02-01T14:45:23.887Z,32.67
2023-02-01T14:47:55.476Z,31.30
2023-02-01T14:50:29.404Z,36.38
2023-02-01T14:53:11.318Z,38.25
2023-02-01T14:55:50.572Z,35.67
2023-02-01T14:58:35.666Z,34.93
2023-02-01T15:01:16.105Z,35.00
2023-02-01T15:03:53.696Z,42.95
2023-02-01T15:06:42.089Z,37.40
2023-02-01T15:09:13.466Z,47.05
2023-02-01T15:12:07.121Z,41.50
2023-02-01T15:14:43.477Z,47.50
2023-02-01T15:17:22.123Z,42.83
2023-02-01T15:20:04.880Z,37.60
2023-02-01T15:22:35.458Z,34.30
2023-02-01T15:25:02.701Z,36.28
2023-02-01T15:27:30.575Z,33.58
2023-02-01T15:30:07.669Z,33.58
2023-02-01T15:32:38.958Z,29.00
2023-02-01T15:35:06.567Z,31.70
2023-02-01T15:37:33.220Z,31.20
2023-02-01T15:40:25.917Z,35.95
2023-02-01T15:42:55.897Z,28.35
2023-02-01T15:45:27.898Z,39.50
2023-02-01T15:47:56.751Z,47.38
2023-02-01T15:50:26.083Z,50.35
2023-02-01T15:52:54.964Z,35.75
2023-02-01T15:55:24.208Z,40.53
2023-02-01T15:57:52.357Z,49.13
2023-02-01T16:00:29.572Z,48.88
2023-02-01T16:03:06.003Z,56.08
2023-02-01T16:05:38.418Z,57.83
2023-02-01T16:08:18.186Z,49.20
2023-02-01T16:10:50.235Z,60.72
2023-02-01T16:13:18.201Z,63.78
2023-02-01T16:15:45.416Z,49.00
2023-02-01T16:18:13.281Z,63.53
2023-02-01T16:20:41.469Z,58.53
2023-02-01T16:23:09.250Z,61.90
2023-02-01T16:25:37.169Z,55.17
2023-02-01T16:28:04.049Z,59.83
2023-02-01T16:30:30.501Z,58.08
2023-02-01T16:32:58.767Z,49.97
2023-02-01T16:35:36.821Z,53.50
2023-02-01T16:38:14.449Z,69.57
2023-02-01T16:40:42.144Z,66.00
2023-02-01T16:43:22.531Z,57.47
2023-02-01T16:45:50.426Z,59.45
2023-02-01T16:48:29.285Z,87.28
2023-02-01T16:50:58.463Z,69.53
2023-02-01T16:53:28.474Z,70.35
2023-02-01T16:55:55.351Z,60.80
2023-02-01T16:58:24.621Z,79.07
2023-02-01T17:00:52.184Z,69.50
2023-02-01T17:03:20.070Z,69.72
2023-02-01T17:05:52.980Z,73.43
2023-02-01T17:08:27.834Z,57.72
2023-02-01T17:10:54.304Z,65.88
2023-02-01T17:13:20.702Z,68.18
2023-02-01T17:15:57.727Z,98.13
2023-02-01T17:18:25.896Z,59.88
2023-02-01T17:20:53.172Z,59.22
2023-02-01T17:23:20.507Z,53.65
2023-02-01T17:25:48.399Z,56.65
2023-02-01T17:28:14.965Z,60.35
2023-02-01T17:30:42.330Z,58.25
2023-02-01T17:33:22.315Z,56.55
2023-02-01T17:35:49.328Z,53.53
2023-02-01T17:38:15.842Z,56.33
2023-02-01T17:40:43.335Z,50.72
2023-02-01T17:43:15.147Z,47.42
2023-02-01T17:45:55.234Z,46.55
2023-02-01T17:48:22.974Z,54.03
2023-02-01T17:50:54.563Z,53.42
2023-02-01T17:53:24.447Z,56.70
2023-02-01T17:55:52.234Z,53.75
2023-02-01T17:58:19.524Z,45.20
2023-02-01T18:00:47.745Z,55.33
2023-02-01T18:03:23.850Z,47.97
2023-02-01T18:05:53.557Z,55.33
2023-02-01T18:08:28.397Z,57.35
2023-02-01T18:10:59.915Z,53.00
2023-02-01T18:13:31.138Z,50.03
2023-02-01T18:15:59.797Z,71.25
2023-02-01T18:18:26.253Z,68.15
2023-02-01T18:20:52.781Z,48.28
2023-02-01T18:23:22.223Z,47.45
2023-02-01T18:25:51.437Z,45.28
2023-02-01T18:28:19.619Z,41.33
2023-02-01T18:30:50.737Z,52.53
2023-02-01T18:33:19.162Z,53.95
2023-02-01T18:35:45.551Z,48.22
2023-02-01T18:38:11.969Z,46.50
2023-02-01T18:40:46.139Z,49.58
2023-02-01T18:43:13.615Z,46.10
2023-02-01T18:45:42.443Z,46.80
2023-02-01T18:48:10.463Z,57.38
2023-02-01T18:50:39.420Z,50.03
2023-02-01T18:53:08.275Z,50.83
2023-02-01T18:55:34.801Z,47.60
2023-02-01T18:58:03.157Z,52.53
2023-02-01T19:00:30.037Z,46.97
2023-02-01T19:02:56.486Z,42.80
2023-02-01T19:05:23.340Z,49.70
2023-02-01T19:07:50.140Z,50.53
2023-02-01T19:10:24.293Z,54.63
2023-02-01T19:12:52.540Z,57.17
2023-02-01T19:15:18.984Z,42.17
2023-02-01T19:17:48.566Z,49.55
2023-02-01T19:20:19.141Z,46.42
2023-02-01T19:22:46.629Z,51.63
2023-02-01T19:25:16.690Z,57.80
2023-02-01T19:27:43.276Z,46.10
2023-02-01T19:30:12.761Z,50.00
2023-02-01T19:32:39.943Z,46.22
2023-02-01T19:35:08.080Z,49.75
2023-02-01T19:37:34.596Z,40.83
2023-02-01T19:40:01.234Z,37.38
2023-02-01T19:42:28.683Z,41.72
2023-02-01T19:44:55.067Z,45.60
2023-02-01T19:47:21.508Z,37.10
2023-02-01T19:49:47.962Z,37.90
2023-02-01T19:52:14.344Z,40.00
2023-02-01T19:54:40.762Z,32.90
2023-02-01T19:57:07.315Z,40.35
2023-02-01T19:59:33.723Z,37.45
2023-02-01T20:01:59.303Z,59.33
2023-02-01T20:04:26.349Z,52.35
2023-02-01T20:06:54.823Z,51.15
2023-02-01T20:09:27.927Z,59.60
2023-02-01T20:11:54.692Z,56.92
2023-02-01T20:14:24.059Z,63.58
2023-02-01T20:16:50.485Z,55.03
2023-02-01T20:19:16.910Z,44.22
2023-02-01T20:21:43.941Z,59.80
2023-02-01T20:24:14.581Z,75.35
2023-02-01T20:26:43.068Z,72.10
2023-02-01T20:29:09.706Z,72.88
2023-02-01T20:31:36.670Z,92.72
2023-02-01T20:34:03.757Z,84.93
2023-02-01T20:36:31.635Z,79.07
2023-02-01T20:38:58.842Z,72.43
2023-02-01T20:41:26.837Z,72.88
2023-02-01T20:43:53.638Z,70.70
2023-02-01T20:46:20.221Z,74.93
2023-02-01T20:48:49.089Z,68.03
2023-02-01T20:51:17.551Z,54.50
2023-02-01T20:53:44.740Z,71.18
2023-02-01T20:56:15.514Z,69.50
2023-02-01T20:58:42.987Z,70.40
2023-02-01T21:01:10.388Z,65.65
2023-02-01T21:03:38.463Z,71.38
2023-02-01T21:06:05.850Z,59.95
2023-02-01T21:08:32.735Z,73.15
2023-02-01T21:11:01.942Z,53.03
2023-02-01T21:13:30.813Z,63.78
2023-02-01T21:15:57.762Z,63.33
2023-02-01T21:18:24.761Z,55.60
2023-02-01T21:20:51.351Z,59.03
2023-02-01T21:23:18.232Z,46.80
2023-02-01T21:25:44.730Z,56.17
2023-02-01T21:28:13.352Z,73.00
2023-02-01T21:30:40.156Z,56.03
2023-02-01T21:33:07.730Z,46.75
2023-02-01T21:35:34.150Z,62.83
2023-02-01T21:38:00.587Z,58.28
2023-02-01T21:40:27.274Z,53.53
2023-02-01T21:42:53.750Z,52.72
2023-02-01T21:45:20.356Z,50.88
2023-02-01T21:47:48.789Z,50.88
2023-02-01T21:50:18.129Z,57.42
2023-02-01T21:52:45.019Z,66.35
2023-02-01T21:55:12.887Z,65.13
2023-02-01T21:57:39.464Z,54.58
2023-02-01T22:00:08.713Z,65.65
2023-02-01T22:02:35.782Z,47.58
2023-02-01T22:05:05.207Z,55.92
2023-02-01T22:07:34.728Z,56.97
2023-02-01T22:10:01.751Z,47.67
2023-02-01T22:12:28.155Z,49.55
2023-02-01T22:14:54.713Z,69.82
2023-02-01T22:17:21.335Z,49.30
2023-02-01T22:19:47.782Z,62.50
2023-02-01T22:22:14.215Z,46.15
2023-02-01T22:24:40.617Z,62.65
2023-02-01T22:27:13.862Z,60.72
2023-02-01T22:29:41.831Z,53.90
2023-02-01T22:32:09.085Z,54.83
2023-02-01T22:34:35.566Z,57.75
2023-02-01T22:37:03.011Z,57.13
2023-02-01T22:39:29.418Z,64.82
2023-02-01T22:41:55.808Z,57.65
2023-02-01T22:44:23.771Z,63.60
2023-02-01T22:46:50.527Z,53.17
2023-02-01T22:49:17.347Z,53.47
2023-02-01T22:51:44.008Z,58.30
2023-02-01T22:54:17.913Z,56.05
2023-02-01T22:56:44.531Z,52.83
2023-02-01T22:59:13.506Z,54.42
2023-02-01T23:01:41.160Z,59.97
2023-02-01T23:04:11.826Z,40.83
2023-02-01T23:06:38.464Z,52.03
2023-02-01T23:09:14.465Z,58.55
2023-02-01T23:11:41.889Z,53.92
2023-02-01T23:14:09.036Z,69.13
2023-02-01T23:16:36.246Z,70.47
2023-02-01T23:19:02.808Z,47.08
2023-02-01T23:21:29.248Z,59.65
2023-02-01T23:23:57.650Z,58.42
2023-02-01T23:26:26.654Z,49.40
2023-02-01T23:28:55.191Z,57.17
2023-02-01T23:31:23.852Z,52.05
2023-02-01T23:33:54.704Z,49.70
2023-02-01T23:36:22.280Z,51.25
2023-02-01T23:38:48.714Z,66.32
2023-02-01T23:41:16.498Z,59.28
2023-02-01T23:43:59.110Z,59.13
2023-02-01T23:46:48.757Z,64.32
2023-02-01T23:49:17.008Z,54.25
2023-02-01T23:51:44.461Z,66.55
2023-02-01T23:54:11.694Z,50.97
2023-02-01T23:56:41.961Z,53.33
